createdAt,value
2018-06-05T00:00:59.709Z,8.93
2018-06-05T00:03:27.218Z,8.97
2018-06-05T00:05:54.774Z,8.67
2018-06-05T00:08:22.350Z,9.10
2018-06-05T00:10:49.905Z,9.50
2018-06-05T00:13:17.427Z,8.37
2018-06-05T00:15:44.951Z,10.20
2018-06-05T00:18:12.536Z,9.90
2018-06-05T00:20:40.060Z,10.50
2018-06-05T00:23:07.565Z,9.33
2018-06-05T00:25:35.089Z,8.70
2018-06-05T00:28:02.643Z,11.30
2018-06-05T00:30:30.152Z,9.80
2018-06-05T00:32:57.677Z,10.17
2018-06-05T00:35:25.253Z,11.30
2018-06-05T00:37:52.765Z,9.60
2018-06-05T00:40:20.300Z,9.73
2018-06-05T00:42:47.810Z,10.00
2018-06-05T00:45:15.332Z,9.90
2018-06-05T00:47:42.863Z,8.90
2018-06-05T00:50:10.370Z,12.00
2018-06-05T00:52:37.906Z,13.03
2018-06-05T00:55:05.422Z,12.00
2018-06-05T00:57:32.925Z,14.03
2018-06-05T01:00:00.466Z,11.33
2018-06-05T01:02:27.996Z,10.97
2018-06-05T01:04:55.514Z,10.10
2018-06-05T01:07:23.052Z,9.80
2018-06-05T01:09:50.593Z,11.07
2018-06-05T01:12:18.154Z,11.17
2018-06-05T01:14:45.689Z,11.30
2018-06-05T01:17:13.224Z,11.70
2018-06-05T01:19:40.781Z,11.20
2018-06-05T01:22:08.333Z,11.80
2018-06-05T01:24:35.987Z,10.80
2018-06-05T01:27:03.552Z,10.03
2018-06-05T01:29:31.056Z,11.47
2018-06-05T01:31:58.585Z,10.37
2018-06-05T01:34:26.111Z,10.33
2018-06-05T01:36:53.615Z,11.20
2018-06-05T01:39:21.138Z,11.60
2018-06-05T01:41:48.673Z,11.33
2018-06-05T01:44:16.192Z,11.50
2018-06-05T01:46:43.785Z,11.13
2018-06-05T01:49:11.282Z,10.77
2018-06-05T01:51:38.789Z,11.20
2018-06-05T01:54:06.303Z,11.60
2018-06-05T01:56:33.827Z,13.77
2018-06-05T01:59:01.389Z,15.70
2018-06-05T02:01:28.929Z,13.27
2018-06-05T02:03:56.457Z,12.63
2018-06-05T02:06:23.957Z,12.17
2018-06-05T02:08:51.484Z,13.03
2018-06-05T02:11:19.011Z,10.57
2018-06-05T02:13:46.535Z,11.87
2018-06-05T02:16:14.065Z,12.70
2018-06-05T02:18:41.609Z,12.57
2018-06-05T02:21:10.121Z,12.07
2018-06-05T02:23:37.722Z,13.37
2018-06-05T02:26:05.280Z,13.90
2018-06-05T02:28:32.789Z,11.37
2018-06-05T02:31:00.363Z,12.00
2018-06-05T02:33:27.872Z,10.03
2018-06-05T02:35:55.451Z,8.00
2018-06-05T02:38:22.947Z,10.50
2018-06-05T02:40:52.147Z,9.37
2018-06-05T02:43:19.721Z,9.53
2018-06-05T02:45:47.284Z,9.47
2018-06-05T02:48:14.801Z,10.30
2018-06-05T02:50:42.323Z,10.17
2018-06-05T02:53:09.893Z,11.07
2018-06-05T02:55:37.455Z,10.83
2018-06-05T02:58:05.003Z,9.13
2018-06-05T03:00:32.504Z,8.83
2018-06-05T03:03:00.039Z,10.40
2018-06-05T03:05:27.581Z,10.67
2018-06-05T03:07:55.130Z,9.73
2018-06-05T03:10:22.669Z,9.20
2018-06-05T03:12:50.192Z,9.40
2018-06-05T03:15:17.719Z,9.30
2018-06-05T03:17:45.260Z,9.33
2018-06-05T03:20:12.774Z,8.67
2018-06-05T03:22:40.318Z,10.37
2018-06-05T03:25:07.848Z,9.73
2018-06-05T03:27:35.348Z,9.70
2018-06-05T03:30:02.991Z,9.43
2018-06-05T03:32:30.532Z,9.43
2018-06-05T03:34:58.027Z,9.97
2018-06-05T03:37:25.611Z,9.63
2018-06-05T03:39:53.170Z,10.33
2018-06-05T03:42:20.668Z,10.70
2018-06-05T03:44:48.188Z,10.70
2018-06-05T03:47:15.820Z,10.00
2018-06-05T03:49:43.328Z,10.07
2018-06-05T03:52:10.926Z,10.37
2018-06-05T03:54:38.460Z,9.77
2018-06-05T03:57:06.194Z,10.20
2018-06-05T03:59:33.779Z,9.80
2018-06-05T04:02:01.270Z,8.97
2018-06-05T04:04:28.818Z,9.50
2018-06-05T04:06:56.386Z,9.57
2018-06-05T04:09:23.909Z,9.63
2018-06-05T04:11:51.439Z,10.00
2018-06-05T04:14:18.987Z,9.53
2018-06-05T04:16:49.145Z,9.07
2018-06-05T04:19:17.127Z,8.10
2018-06-05T04:21:44.662Z,7.97
2018-06-05T04:24:12.630Z,9.07
2018-06-05T04:26:40.256Z,9.27
2018-06-05T04:29:07.823Z,8.73
2018-06-05T04:31:35.322Z,10.00
2018-06-05T04:34:02.898Z,9.13
2018-06-05T04:36:30.434Z,8.30
2018-06-05T04:38:57.955Z,9.50
2018-06-05T04:41:25.553Z,9.27
2018-06-05T04:43:53.460Z,9.67
2018-06-05T04:46:21.048Z,9.37
2018-06-05T04:48:48.588Z,9.97
2018-06-05T04:51:16.134Z,8.87
2018-06-05T04:53:43.636Z,9.97
2018-06-05T04:56:11.163Z,8.20
2018-06-05T04:58:38.757Z,8.27
2018-06-05T05:01:06.469Z,7.60
2018-06-05T05:03:33.991Z,8.27
2018-06-05T05:06:01.513Z,9.30
2018-06-05T05:08:29.069Z,8.37
2018-06-05T05:10:56.609Z,8.03
2018-06-05T05:13:24.169Z,7.90
2018-06-05T05:15:51.720Z,8.30
2018-06-05T05:18:19.249Z,9.00
2018-06-05T05:20:46.773Z,8.37
2018-06-05T05:23:14.318Z,7.90
2018-06-05T05:25:42.025Z,7.17
2018-06-05T05:28:09.581Z,5.80
2018-06-05T05:30:37.128Z,5.80
2018-06-05T05:33:04.697Z,5.30
2018-06-05T05:35:32.243Z,6.10
2018-06-05T05:37:59.775Z,5.60
2018-06-05T05:40:27.278Z,4.70
2018-06-05T05:42:54.827Z,5.07
2018-06-05T05:45:22.326Z,5.90
2018-06-05T05:47:49.914Z,5.27
2018-06-05T05:50:17.478Z,5.80
2018-06-05T05:52:44.970Z,6.17
2018-06-05T05:55:12.533Z,4.60
2018-06-05T05:57:40.065Z,5.20
2018-06-05T06:00:07.586Z,5.23
2018-06-05T06:02:35.129Z,5.40
2018-06-05T06:05:02.745Z,4.73
2018-06-05T06:07:30.252Z,4.90
2018-06-05T06:09:57.742Z,4.40
2018-06-05T06:12:25.291Z,4.60
2018-06-05T06:14:52.840Z,4.40
2018-06-05T06:17:20.338Z,4.93
2018-06-05T06:19:47.878Z,4.57
2018-06-05T06:22:15.395Z,5.70
2018-06-05T06:24:42.942Z,5.60
2018-06-05T06:27:10.491Z,5.57
2018-06-05T06:29:38.001Z,5.40
2018-06-05T06:32:05.684Z,5.47
2018-06-05T06:34:33.209Z,5.00
2018-06-05T06:37:00.740Z,5.00
2018-06-05T06:39:28.279Z,5.00
2018-06-05T06:41:55.833Z,5.77
2018-06-05T06:44:23.340Z,4.33
2018-06-05T06:46:50.946Z,5.50
2018-06-05T06:49:18.479Z,4.53
2018-06-05T06:51:46.020Z,4.90
2018-06-05T06:54:13.515Z,5.53
2018-06-05T06:56:41.070Z,5.60
2018-06-05T06:59:08.663Z,5.17
2018-06-05T07:01:36.219Z,5.30
2018-06-05T07:04:03.768Z,4.90
2018-06-05T07:06:31.290Z,5.10
2018-06-05T07:08:58.815Z,5.97
2018-06-05T07:11:26.343Z,5.47
2018-06-05T07:13:53.866Z,4.77
2018-06-05T07:16:21.413Z,5.27
2018-06-05T07:18:48.970Z,4.90
2018-06-05T07:21:16.472Z,4.90
2018-06-05T07:23:43.971Z,5.70
2018-06-05T07:26:11.493Z,4.90
2018-06-05T07:28:39.017Z,5.50
2018-06-05T07:31:06.530Z,5.70
2018-06-05T07:33:34.064Z,5.90
2018-06-05T07:36:01.565Z,5.60
2018-06-05T07:38:29.096Z,7.13
2018-06-05T07:40:56.667Z,6.23
2018-06-05T07:43:24.204Z,7.30
2018-06-05T07:45:51.845Z,8.77
2018-06-05T07:48:19.393Z,5.93
2018-06-05T07:50:46.905Z,6.50
2018-06-05T07:53:14.467Z,6.47
2018-06-05T07:55:42.006Z,6.93
2018-06-05T07:58:09.537Z,6.30
2018-06-05T08:00:37.071Z,6.33
2018-06-05T08:03:04.669Z,6.77
2018-06-05T08:05:32.163Z,10.20
2018-06-05T08:07:59.683Z,11.30
2018-06-05T08:10:27.230Z,10.60
2018-06-05T08:12:54.761Z,7.57
2018-06-05T08:15:22.301Z,6.50
2018-06-05T08:17:49.846Z,6.87
2018-06-05T08:20:17.384Z,6.87
2018-06-05T08:22:56.617Z,6.43
2018-06-05T08:25:24.159Z,9.33
2018-06-05T08:27:51.675Z,13.33
2018-06-05T08:30:19.197Z,13.70
2018-06-05T08:32:46.762Z,7.00
2018-06-05T08:35:14.281Z,8.30
2018-06-05T08:37:41.943Z,17.73
2018-06-05T08:40:09.491Z,16.90
2018-06-05T08:42:36.990Z,40.83
2018-06-05T08:45:04.572Z,8.20
2018-06-05T08:47:32.137Z,7.90
2018-06-05T08:49:59.672Z,7.40
2018-06-05T08:52:27.186Z,7.80
2018-06-05T08:54:54.754Z,8.10
2018-06-05T08:57:22.291Z,8.53
2018-06-05T08:59:49.873Z,8.10
2018-06-05T09:02:17.398Z,8.20
2018-06-05T09:04:44.935Z,8.40
2018-06-05T09:07:12.568Z,8.27
2018-06-05T09:09:40.089Z,8.50
2018-06-05T09:12:07.610Z,9.20
2018-06-05T09:14:35.187Z,7.47
2018-06-05T09:17:02.768Z,7.17
2018-06-05T09:19:30.296Z,8.27
2018-06-05T09:21:57.818Z,8.77
2018-06-05T09:24:25.321Z,8.23
2018-06-05T09:26:52.863Z,8.20
2018-06-05T09:29:20.382Z,8.20
2018-06-05T09:31:47.896Z,7.20
2018-06-05T09:34:15.438Z,8.90
2018-06-05T09:36:43.013Z,8.17
2018-06-05T09:39:10.540Z,7.40
2018-06-05T09:41:38.066Z,7.47
2018-06-05T09:44:05.655Z,7.70
2018-06-05T09:46:33.195Z,7.70
2018-06-05T09:49:00.718Z,7.30
2018-06-05T09:51:28.259Z,8.20
2018-06-05T09:53:55.819Z,8.00
2018-06-05T09:56:23.345Z,7.20
2018-06-05T09:58:50.905Z,8.40
2018-06-05T10:01:18.449Z,7.70
2018-06-05T10:03:46.026Z,7.03
2018-06-05T10:06:13.538Z,8.27
2018-06-05T10:08:41.059Z,7.10
2018-06-05T10:11:08.606Z,7.83
2018-06-05T10:13:36.171Z,7.50
2018-06-05T10:16:03.766Z,6.90
2018-06-05T10:18:31.323Z,7.17
2018-06-05T10:20:58.856Z,7.30
2018-06-05T10:23:26.355Z,7.00
2018-06-05T10:25:53.907Z,7.60
2018-06-05T10:28:21.455Z,7.10
2018-06-05T10:30:49.065Z,7.07
2018-06-05T10:33:16.581Z,7.00
2018-06-05T10:35:44.133Z,7.00
2018-06-05T10:38:11.648Z,6.87
2018-06-05T10:40:39.195Z,6.33
2018-06-05T10:43:06.745Z,6.10
2018-06-05T10:45:34.309Z,6.40
2018-06-05T10:48:01.846Z,5.77
2018-06-05T10:50:29.409Z,5.30
2018-06-05T10:52:56.930Z,5.60
2018-06-05T10:55:24.476Z,5.00
2018-06-05T10:57:51.999Z,4.80
2018-06-05T11:00:19.562Z,4.57
2018-06-05T11:02:47.049Z,4.80
2018-06-05T11:05:14.595Z,4.60
2018-06-05T11:07:42.094Z,5.33
2018-06-05T11:10:09.651Z,5.03
2018-06-05T11:12:37.191Z,4.80
2018-06-05T11:15:04.725Z,5.17
2018-06-05T11:17:32.414Z,5.47
2018-06-05T11:20:00.001Z,5.40
2018-06-05T11:22:27.505Z,5.53
2018-06-05T11:24:55.018Z,4.70
2018-06-05T11:27:22.589Z,5.73
2018-06-05T11:29:50.145Z,5.30
2018-06-05T11:32:17.662Z,4.90
2018-06-05T11:34:45.247Z,5.40
2018-06-05T11:37:12.782Z,5.30
2018-06-05T11:39:40.285Z,5.50
2018-06-05T11:42:07.850Z,4.87
2018-06-05T11:44:35.366Z,5.10
2018-06-05T11:47:02.892Z,5.60
2018-06-05T11:49:30.395Z,5.40
2018-06-05T11:51:57.954Z,5.97
2018-06-05T11:54:25.578Z,5.87
2018-06-05T11:56:53.095Z,5.97
2018-06-05T11:59:20.601Z,6.30
2018-06-05T12:01:48.221Z,5.47
2018-06-05T12:04:15.773Z,6.00
2018-06-05T12:06:43.304Z,5.47
2018-06-05T12:09:10.980Z,5.80
2018-06-05T12:11:38.507Z,4.80
2018-06-05T12:14:06.034Z,5.10
2018-06-05T12:16:33.579Z,5.37
2018-06-05T12:19:01.117Z,5.80
2018-06-05T12:21:28.641Z,5.47
2018-06-05T12:23:56.153Z,6.00
2018-06-05T12:26:23.692Z,5.60
2018-06-05T12:28:51.259Z,6.57
2018-06-05T12:31:18.777Z,6.20
2018-06-05T12:33:46.319Z,5.77
2018-06-05T12:36:13.841Z,5.97
2018-06-05T12:38:41.449Z,6.13
2018-06-05T12:41:08.991Z,5.87
2018-06-05T12:43:36.525Z,6.23
2018-06-05T12:46:04.092Z,7.03
2018-06-05T12:48:31.637Z,7.10
2018-06-05T12:50:59.161Z,6.80
2018-06-05T12:53:26.731Z,7.13
2018-06-05T12:55:54.285Z,7.97
2018-06-05T12:58:21.796Z,7.77
2018-06-05T13:00:49.324Z,7.33
2018-06-05T13:03:16.872Z,7.07
2018-06-05T13:05:44.441Z,7.50
2018-06-05T13:08:11.980Z,6.50
2018-06-05T13:10:39.540Z,6.93
2018-06-05T13:13:07.089Z,6.47
2018-06-05T13:15:34.647Z,6.50
2018-06-05T13:18:02.185Z,6.30
2018-06-05T13:20:29.740Z,6.90
2018-06-05T13:22:57.393Z,5.63
2018-06-05T13:25:24.824Z,6.80
2018-06-05T13:27:52.316Z,6.57
2018-06-05T13:30:19.856Z,6.60
2018-06-05T13:32:47.402Z,7.00
2018-06-05T13:35:14.912Z,7.00
2018-06-05T13:37:42.412Z,6.87
2018-06-05T13:40:09.948Z,7.30
2018-06-05T13:42:37.488Z,6.97
2018-06-05T13:45:05.003Z,7.30
2018-06-05T13:47:32.531Z,7.33
2018-06-05T13:50:00.092Z,6.80
2018-06-05T13:52:27.684Z,6.80
2018-06-05T13:54:55.194Z,6.50
2018-06-05T13:57:22.728Z,7.00
2018-06-05T13:59:50.305Z,6.17
2018-06-05T14:02:17.864Z,6.07
2018-06-05T14:04:45.514Z,6.13
2018-06-05T14:07:13.032Z,6.57
2018-06-05T14:09:40.573Z,6.03
2018-06-05T14:12:08.930Z,5.67
2018-06-05T14:14:36.458Z,6.13
2018-06-05T14:17:04.166Z,7.03
2018-06-05T14:19:31.747Z,6.83
2018-06-05T14:21:59.258Z,6.37
2018-06-05T14:24:26.827Z,6.73
2018-06-05T14:26:54.382Z,6.77
2018-06-05T14:29:21.916Z,6.43
2018-06-05T14:31:49.461Z,6.50
2018-06-05T14:34:16.991Z,6.40
2018-06-05T14:36:44.536Z,5.63
2018-06-05T14:39:12.162Z,5.93
2018-06-05T14:41:39.696Z,5.73
2018-06-05T14:44:07.264Z,6.47
2018-06-05T14:46:34.847Z,6.30
2018-06-05T14:49:02.368Z,6.27
2018-06-05T14:51:29.918Z,6.00
2018-06-05T14:53:57.458Z,6.60
2018-06-05T14:56:24.999Z,5.47
2018-06-05T14:58:52.560Z,5.57
2018-06-05T15:01:20.109Z,5.70
2018-06-05T15:03:47.606Z,6.47
2018-06-05T15:06:15.121Z,6.23
2018-06-05T15:08:42.691Z,5.60
2018-06-05T15:11:10.232Z,5.17
2018-06-05T15:13:37.727Z,4.93
2018-06-05T15:16:05.334Z,5.30
2018-06-05T15:18:32.863Z,5.93
2018-06-05T15:21:00.394Z,4.90
2018-06-05T15:23:27.956Z,4.90
2018-06-05T15:25:55.462Z,5.13
2018-06-05T15:28:22.992Z,4.60
2018-06-05T15:30:50.520Z,4.70
2018-06-05T15:33:18.107Z,5.43
2018-06-05T15:35:45.631Z,5.20
2018-06-05T15:38:13.183Z,5.00
2018-06-05T15:40:40.701Z,5.30
2018-06-05T15:43:08.258Z,5.50
2018-06-05T15:45:35.859Z,5.93
2018-06-05T15:48:03.413Z,6.70
2018-06-05T15:50:30.962Z,5.40
2018-06-05T15:52:58.478Z,5.17
2018-06-05T15:55:26.093Z,4.90
2018-06-05T15:57:53.596Z,5.60
2018-06-05T16:00:21.128Z,4.90
2018-06-05T16:02:48.687Z,4.40
2018-06-05T16:05:16.236Z,4.87
2018-06-05T16:07:43.842Z,4.87
2018-06-05T16:10:11.410Z,4.87
2018-06-05T16:12:38.964Z,5.30
2018-06-05T16:15:06.583Z,5.37
2018-06-05T16:17:34.122Z,5.50
2018-06-05T16:20:01.880Z,5.77
2018-06-05T16:22:29.434Z,5.63
2018-06-05T16:24:57.014Z,5.53
2018-06-05T16:27:24.578Z,5.73
2018-06-05T16:29:52.150Z,4.60
2018-06-05T16:32:19.680Z,5.70
2018-06-05T16:34:47.192Z,4.87
2018-06-05T16:37:14.757Z,5.50
2018-06-05T16:39:42.276Z,4.80
2018-06-05T16:42:09.845Z,5.60
2018-06-05T16:44:37.499Z,5.27
2018-06-05T16:47:05.061Z,5.83
2018-06-05T16:49:32.620Z,5.67
2018-06-05T16:52:00.208Z,5.03
2018-06-05T16:54:27.772Z,5.27
2018-06-05T16:56:55.324Z,5.00
2018-06-05T16:59:22.930Z,5.40
2018-06-05T17:01:50.435Z,5.50
2018-06-05T17:04:18.058Z,5.23
2018-06-05T17:06:45.577Z,5.93
2018-06-05T17:09:13.146Z,4.67
2018-06-05T17:11:40.666Z,4.97
2018-06-05T17:14:08.249Z,5.53
2018-06-05T17:16:35.805Z,6.17
2018-06-05T17:19:03.354Z,5.33
2018-06-05T17:21:30.944Z,5.73
2018-06-05T17:23:58.515Z,6.40
2018-06-05T17:26:26.098Z,6.20
2018-06-05T17:28:53.680Z,7.13
2018-06-05T17:31:21.214Z,7.40
2018-06-05T17:33:48.791Z,6.80
2018-06-05T17:36:16.379Z,5.73
2018-06-05T17:38:43.935Z,7.17
2018-06-05T17:41:11.468Z,7.90
2018-06-05T17:43:39.020Z,7.27
2018-06-05T17:46:06.588Z,7.07
2018-06-05T17:48:34.130Z,7.93
2018-06-05T17:51:01.721Z,7.30
2018-06-05T17:53:29.257Z,6.77
2018-06-05T17:55:56.805Z,7.90
2018-06-05T17:58:24.375Z,7.57
2018-06-05T18:00:51.935Z,8.80
2018-06-05T18:03:19.482Z,7.27
2018-06-05T18:05:47.080Z,8.37
2018-06-05T18:08:14.666Z,11.93
2018-06-05T18:10:42.250Z,10.77
2018-06-05T18:13:09.852Z,17.80
2018-06-05T18:15:37.468Z,28.03
2018-06-05T18:18:05.067Z,21.77
2018-06-05T18:20:32.664Z,58.87
2018-06-05T18:23:00.224Z,50.43
2018-06-05T18:25:27.797Z,34.40
2018-06-05T18:27:55.353Z,52.47
2018-06-05T18:30:22.926Z,38.47
2018-06-05T18:32:50.476Z,65.23
2018-06-05T18:35:18.055Z,25.20
2018-06-05T18:37:45.669Z,14.20
2018-06-05T18:40:13.210Z,27.33
2018-06-05T18:42:40.865Z,23.17
2018-06-05T18:45:08.551Z,15.17
2018-06-05T18:47:36.135Z,17.73
2018-06-05T18:50:03.818Z,73.07
2018-06-05T18:52:31.461Z,55.17
2018-06-05T18:54:59.058Z,21.87
2018-06-05T18:57:26.771Z,27.90
2018-06-05T18:59:54.429Z,31.57
2018-06-05T19:02:22.073Z,19.43
2018-06-05T19:04:50.608Z,19.70
2018-06-05T19:07:18.163Z,29.17
2018-06-05T19:09:45.812Z,21.20
2018-06-05T19:12:13.456Z,37.37
2018-06-05T19:14:41.345Z,27.97
2018-06-05T19:17:08.980Z,35.03
2018-06-05T19:19:36.569Z,28.67
2018-06-05T19:22:04.414Z,19.60
2018-06-05T19:24:32.091Z,15.30
2018-06-05T19:26:59.774Z,17.73
2018-06-05T19:29:27.415Z,13.00
2018-06-05T19:31:55.190Z,13.50
2018-06-05T19:34:22.936Z,11.20
2018-06-05T19:36:50.566Z,9.07
2018-06-05T19:39:18.244Z,9.30
2018-06-05T19:41:45.900Z,10.60
2018-06-05T19:44:13.515Z,10.30
2018-06-05T19:46:41.214Z,10.07
2018-06-05T19:49:08.806Z,9.13
2018-06-05T19:51:36.385Z,11.27
2018-06-05T19:54:04.042Z,10.40
2018-06-05T19:56:31.688Z,10.57
2018-06-05T19:58:59.318Z,10.40
2018-06-05T20:01:26.990Z,11.30
2018-06-05T20:03:54.637Z,11.20
2018-06-05T20:06:22.226Z,11.07
2018-06-05T20:08:49.894Z,10.23
2018-06-05T20:11:17.708Z,10.73
2018-06-05T20:13:45.343Z,11.17
2018-06-05T20:16:12.981Z,11.57
2018-06-05T20:18:40.688Z,10.33
2018-06-05T20:21:08.345Z,10.93
2018-06-05T20:23:35.965Z,10.63
2018-06-05T20:26:03.606Z,10.70
2018-06-05T20:28:31.243Z,9.23
2018-06-05T20:30:58.792Z,11.93
2018-06-05T20:33:26.568Z,10.70
2018-06-05T20:35:54.177Z,11.20
2018-06-05T20:38:21.718Z,10.70
2018-06-05T20:40:49.278Z,11.17
2018-06-05T20:43:16.818Z,10.83
2018-06-05T20:45:44.402Z,10.10
2018-06-05T20:48:11.962Z,10.90
2018-06-05T20:50:39.508Z,10.17
2018-06-05T20:53:07.017Z,11.40
2018-06-05T20:55:34.566Z,12.17
2018-06-05T20:58:02.124Z,11.43
2018-06-05T21:00:29.728Z,12.50
2018-06-05T21:02:57.319Z,11.53
2018-06-05T21:05:24.873Z,12.33
2018-06-05T21:07:52.395Z,11.30
2018-06-05T21:10:20.008Z,12.47
2018-06-05T21:12:47.557Z,12.00
2018-06-05T21:15:15.098Z,12.20
2018-06-05T21:17:42.755Z,11.73
2018-06-05T21:20:10.348Z,11.67
2018-06-05T21:22:38.024Z,12.73
2018-06-05T21:25:05.567Z,12.10
2018-06-05T21:27:33.105Z,11.93
2018-06-05T21:30:00.655Z,12.47
2018-06-05T21:32:28.195Z,13.40
2018-06-05T21:34:55.731Z,11.43
2018-06-05T21:37:23.296Z,12.73
2018-06-05T21:39:50.841Z,12.63
2018-06-05T21:42:18.373Z,11.80
2018-06-05T21:44:45.954Z,11.07
2018-06-05T21:47:13.503Z,12.13
2018-06-05T21:49:41.041Z,12.17
2018-06-05T21:52:08.590Z,12.20
2018-06-05T21:54:36.227Z,13.23
2018-06-05T21:57:03.825Z,12.67
2018-06-05T21:59:31.342Z,14.03
2018-06-05T22:01:58.995Z,13.90
2018-06-05T22:04:26.586Z,13.60
2018-06-05T22:06:54.155Z,14.43
2018-06-05T22:09:21.725Z,13.03
2018-06-05T22:11:49.259Z,13.00
2018-06-05T22:14:16.795Z,13.07
2018-06-05T22:16:44.323Z,13.60
2018-06-05T22:19:11.867Z,11.97
2018-06-05T22:21:39.397Z,13.20
2018-06-05T22:24:07.394Z,14.43
2018-06-05T22:26:34.915Z,13.93
2018-06-05T22:29:02.467Z,14.40
2018-06-05T22:31:30.026Z,15.57
2018-06-05T22:33:57.551Z,15.33
2018-06-05T22:36:25.387Z,14.47
2018-06-05T22:38:52.929Z,14.80
2018-06-05T22:41:20.447Z,16.30
2018-06-05T22:43:47.980Z,15.80
2018-06-05T22:46:15.573Z,13.70
2018-06-05T22:48:43.100Z,14.97
2018-06-05T22:51:10.662Z,14.90
2018-06-05T22:53:38.200Z,15.80
2018-06-05T22:56:05.699Z,14.80
2018-06-05T22:58:33.280Z,15.80
2018-06-05T23:01:00.802Z,14.60
2018-06-05T23:03:28.312Z,15.50
2018-06-05T23:05:55.845Z,16.10
2018-06-05T23:08:23.388Z,15.50
2018-06-05T23:10:50.936Z,16.23
2018-06-05T23:13:18.468Z,15.67
2018-06-05T23:15:46.002Z,17.03
2018-06-05T23:18:13.506Z,16.60
2018-06-05T23:20:41.026Z,18.43
2018-06-05T23:23:08.578Z,16.43
2018-06-05T23:25:36.150Z,16.87
2018-06-05T23:28:03.776Z,16.80
2018-06-05T23:30:31.366Z,17.97
2018-06-05T23:32:58.888Z,15.60
2018-06-05T23:35:26.423Z,17.43
2018-06-05T23:37:53.956Z,15.67
2018-06-05T23:40:21.460Z,16.63
2018-06-05T23:42:49.010Z,18.10
2018-06-05T23:45:16.583Z,15.13
2018-06-05T23:47:44.123Z,15.63
2018-06-05T23:50:11.665Z,16.87
2018-06-05T23:52:39.212Z,16.17
2018-06-05T23:55:06.738Z,15.80
2018-06-05T23:57:34.247Z,15.27
